Time;durP1;ratioP1;P1;durP2;ratioP2;P2;SDS_P1;SDS_P2;PMS_P1;PMS_P2;Temp;Humidity;BMP_temperature;BMP_pressure;BME280_temperature;BME280_humidity;BME280_pressure;Samples;Min_cycle;Max_cycle;Signal;HPM_P1;HPM_P2
2023/03/29 00:01:15;;;;;;;3.15;1.08;;;6.30;99.90;;;;;;4971801;28;20320;-75
2023/03/29 00:03:44;;;;;;;3.72;1.23;;;6.30;99.90;;;;;;4979609;28;20065;-74
2023/03/29 00:06:14;;;;;;;4.25;1.10;;;6.30;99.90;;;;;;4990813;28;20038;-74
2023/03/29 00:08:41;;;;;;;2.08;1.02;;;6.30;99.90;;;;;;4975403;28;20036;-75
2023/03/29 00:11:07;;;;;;;2.72;0.77;;;6.20;99.90;;;;;;4949116;28;20096;-75
2023/03/29 00:13:34;;;;;;;2.83;1.25;;;6.20;99.90;;;;;;4959439;28;20054;-75
2023/03/29 00:16:00;;;;;;;4.55;1.00;;;6.20;99.90;;;;;;4957157;28;20037;-75
2023/03/29 00:18:27;;;;;;;2.70;0.73;;;6.20;99.90;;;;;;4976703;28;20048;-75
2023/03/29 00:20:55;;;;;;;2.08;0.85;;;6.20;99.90;;;;;;4989621;28;20045;-75
2023/03/29 00:23:21;;;;;;;4.28;0.73;;;6.20;99.90;;;;;;4995242;28;20922;-75
2023/03/29 00:25:48;;;;;;;1.90;0.73;;;6.20;99.90;;;;;;4973511;28;20040;-75
2023/03/29 00:28:14;;;;;;;2.72;0.63;;;6.20;99.90;;;;;;4970711;28;20038;-75
2023/03/29 00:30:40;;;;;;;4.25;1.48;;;6.30;99.90;;;;;;4980961;28;20045;-76
2023/03/29 00:33:07;;;;;;;1.75;0.93;;;6.30;99.90;;;;;;4971835;28;20049;-75
2023/03/29 00:35:33;;;;;;;3.17;0.80;;;6.30;99.90;;;;;;4970300;28;20046;-75
2023/03/29 00:38:00;;;;;;;2.42;1.00;;;6.40;99.90;;;;;;4956418;28;20054;-75
2023/03/29 00:40:26;;;;;;;2.08;0.90;;;6.40;99.90;;;;;;4961880;28;20034;-75
2023/03/29 00:42:55;;;;;;;1.73;0.85;;;6.40;99.90;;;;;;4978918;28;20053;-75
2023/03/29 00:45:24;;;;;;;3.55;0.98;;;6.40;99.90;;;;;;4980604;28;20388;-75
2023/03/29 00:48:01;;;;;;;2.78;0.90;;;6.40;99.90;;;;;;4971647;28;20496;-76
2023/03/29 00:50:44;;;;;;;3.00;1.00;;;6.40;99.90;;;;;;4968180;28;20425;-75
2023/03/29 00:53:20;;;;;;;4.15;1.15;;;6.40;99.90;;;;;;4953279;28;20045;-75
2023/03/29 00:56:10;;;;;;;3.85;1.20;;;6.40;99.90;;;;;;4970237;28;20046;-76
2023/03/29 00:58:51;;;;;;;3.65;1.33;;;6.30;99.90;;;;;;4986255;28;20049;-75
2023/03/29 01:01:32;;;;;;;3.22;1.77;;;6.30;99.90;;;;;;4986951;28;20041;-75
2023/03/29 01:04:08;;;;;;;2.03;0.90;;;6.20;99.90;;;;;;4978488;28;20038;-75
2023/03/29 01:06:38;;;;;;;3.05;1.00;;;6.20;99.90;;;;;;4961735;28;20049;-76
2023/03/29 01:09:09;;;;;;;1.85;0.70;;;6.10;99.90;;;;;;4968710;28;20053;-76
2023/03/29 01:11:54;;;;;;;3.58;1.05;;;6.20;99.90;;;;;;4964225;28;20034;-75
2023/03/29 01:14:27;;;;;;;1.88;0.70;;;6.20;99.90;;;;;;4983807;28;20053;-75
2023/03/29 01:16:54;;;;;;;2.00;0.80;;;6.20;99.90;;;;;;4968951;28;20042;-75
2023/03/29 01:19:25;;;;;;;2.97;0.90;;;6.20;99.90;;;;;;4953596;28;20044;-76
2023/03/29 01:22:04;;;;;;;1.95;0.95;;;6.20;99.90;;;;;;4985409;28;20060;-75
2023/03/29 01:24:49;;;;;;;1.60;0.60;;;6.20;99.90;;;;;;4979991;28;20042;-75
2023/03/29 01:27:54;;;;;;;2.58;1.00;;;6.30;99.90;;;;;;4990299;28;20572;-76
2023/03/29 01:30:37;;;;;;;2.90;0.88;;;6.30;99.90;;;;;;4961339;28;20069;-76
2023/03/29 01:33:24;;;;;;;;;;;6.30;99.90;;;;;;4952564;28;20042;-75
2023/03/29 01:36:10;;;;;;;2.45;0.88;;;6.30;99.90;;;;;;4966762;28;19917;-75
2023/03/29 01:38:57;;;;;;;4.32;0.93;;;6.30;99.90;;;;;;4968767;28;22031;-76
2023/03/29 01:41:43;;;;;;;2.75;0.80;;;6.40;99.90;;;;;;4966416;28;20041;-75
2023/03/29 01:44:24;;;;;;;2.50;1.00;;;6.40;99.90;;;;;;4978019;28;20030;-75
2023/03/29 01:46:57;;;;;;;3.38;1.05;;;6.40;99.90;;;;;;4977511;28;20034;-75
2023/03/29 01:49:33;;;;;;;3.22;0.73;;;6.50;99.90;;;;;;4985634;28;20038;-76
2023/03/29 01:52:09;;;;;;;5.88;1.48;;;6.50;99.90;;;;;;4950042;28;20038;-75
2023/03/29 01:54:46;;;;;;;2.20;1.20;;;6.50;99.90;;;;;;4969971;28;20050;-75
2023/03/29 01:57:14;;;;;;;2.78;1.00;;;6.50;99.90;;;;;;4969692;28;20053;-75
2023/03/29 01:59:43;;;;;;;2.60;0.77;;;6.50;99.90;;;;;;4969669;28;20489;-76
2023/03/29 02:02:13;;;;;;;2.38;0.95;;;6.60;99.90;;;;;;4971673;28;20038;-74
2023/03/29 02:04:48;;;;;;;2.47;0.77;;;6.60;99.90;;;;;;4979236;28;20354;-75
2023/03/29 02:07:18;;;;;;;3.90;1.60;;;6.60;99.90;;;;;;4958603;28;20053;-75
2023/03/29 02:09:45;;;;;;;2.85;0.93;;;6.70;99.90;;;;;;4953486;28;20041;-75
2023/03/29 02:12:14;;;;;;;3.75;1.05;;;6.70;99.90;;;;;;4966111;28;20041;-74
2023/03/29 02:14:40;;;;;;;1.92;0.80;;;6.70;99.90;;;;;;4966678;28;20042;-75
2023/03/29 02:17:17;;;;;;;2.45;0.80;;;6.70;99.90;;;;;;4968621;28;20579;-74
2023/03/29 02:19:49;;;;;;;1.73;0.57;;;6.80;99.90;;;;;;4970529;28;20567;-75
2023/03/29 02:22:23;;;;;;;2.17;0.60;;;6.80;99.90;;;;;;4987846;28;20551;-75
2023/03/29 02:24:52;;;;;;;4.00;1.20;;;6.80;99.90;;;;;;4978773;28;20034;-74
2023/03/29 02:27:20;;;;;;;5.20;1.17;;;6.80;99.90;;;;;;4972034;28;20033;-75
2023/03/29 02:29:47;;;;;;;3.03;1.27;;;6.80;99.90;;;;;;4969860;28;20057;-75
2023/03/29 02:32:22;;;;;;;1.98;0.70;;;6.90;99.90;;;;;;4960857;28;20576;-74
2023/03/29 02:34:57;;;;;;;3.55;1.25;;;6.80;99.90;;;;;;4967993;28;20056;-75
2023/03/29 02:37:29;;;;;;;2.47;1.00;;;6.90;99.90;;;;;;4967724;28;20076;-74
2023/03/29 02:39:57;;;;;;;2.53;1.15;;;6.90;99.90;;;;;;4970881;28;20680;-75
2023/03/29 02:42:25;;;;;;;8.20;1.10;;;6.90;99.90;;;;;;4987929;28;20126;-75
2023/03/29 02:44:56;;;;;;;3.58;0.80;;;6.90;99.90;;;;;;4976266;28;20046;-75
2023/03/29 02:47:30;;;;;;;3.72;1.27;;;6.90;99.90;;;;;;4952917;28;21711;-74
2023/03/29 02:49:58;;;;;;;4.32;1.10;;;6.90;99.90;;;;;;4966539;28;20054;-74
2023/03/29 02:52:33;;;;;;;5.75;1.88;;;6.90;99.90;;;;;;4963104;28;20450;-73
2023/03/29 02:55:03;;;;;;;2.28;1.23;;;6.80;99.90;;;;;;4968294;28;20489;-73
2023/03/29 02:57:31;;;;;;;5.60;1.25;;;6.80;99.90;;;;;;4982841;28;20053;-73
2023/03/29 02:59:59;;;;;;;1.88;0.82;;;6.70;99.90;;;;;;4966972;28;20037;-73
2023/03/29 03:02:26;;;;;;;4.30;1.83;;;6.70;99.90;;;;;;4971989;28;20053;-74
2023/03/29 03:04:54;;;;;;;4.90;1.42;;;6.70;99.90;;;;;;4992685;28;20048;-73
2023/03/29 03:07:21;;;;;;;3.13;1.20;;;6.70;99.90;;;;;;4967894;28;20049;-73
2023/03/29 03:09:48;;;;;;;3.30;1.10;;;6.60;99.90;;;;;;4967468;28;20033;-74
2023/03/29 03:12:14;;;;;;;4.55;0.90;;;6.60;99.90;;;;;;4961831;28;20518;-74
2023/03/29 03:14:41;;;;;;;3.03;1.13;;;6.60;99.90;;;;;;4968944;28;21405;-74
2023/03/29 03:17:07;;;;;;;4.03;1.02;;;6.60;99.90;;;;;;4968317;28;20049;-74
2023/03/29 03:19:33;;;;;;;4.53;1.23;;;6.50;99.90;;;;;;4986937;28;20038;-73
2023/03/29 03:22:00;;;;;;;2.90;1.55;;;6.50;99.90;;;;;;4954545;28;20046;-73
2023/03/29 03:24:27;;;;;;;2.55;1.30;;;6.50;99.90;;;;;;4977179;28;20963;-73
2023/03/29 03:26:54;;;;;;;4.13;1.40;;;6.50;99.90;;;;;;4986918;28;20037;-73
2023/03/29 03:29:20;;;;;;;3.22;1.27;;;6.50;99.90;;;;;;4971370;28;20400;-73
2023/03/29 03:32:05;;;;;;;4.28;1.48;;;6.60;99.90;;;;;;4963796;28;20057;-74
2023/03/29 03:34:50;;;;;;;3.10;1.20;;;6.60;99.90;;;;;;4972579;28;20061;-73
2023/03/29 03:37:17;;;;;;;2.05;1.05;;;6.60;99.90;;;;;;4969847;28;20034;-73
2023/03/29 03:39:43;;;;;;;3.75;1.17;;;6.60;99.90;;;;;;4979896;28;20041;-74
2023/03/29 03:42:10;;;;;;;3.25;1.42;;;6.60;99.90;;;;;;4990469;28;20044;-74
2023/03/29 03:44:43;;;;;;;2.80;1.30;;;6.60;99.90;;;;;;4967097;28;20030;-74
2023/03/29 03:47:36;;;;;;;2.75;1.30;;;6.60;99.90;;;;;;4971815;28;20846;-74
2023/03/29 03:50:17;;;;;;;2.20;1.00;;;6.60;99.90;;;;;;4954322;28;20448;-75
2023/03/29 03:52:43;;;;;;;2.88;1.40;;;6.60;99.90;;;;;;4986302;28;20527;-74
2023/03/29 03:55:10;;;;;;;3.97;1.42;;;6.70;99.90;;;;;;4956573;28;20056;-75
2023/03/29 03:57:43;;;;;;;6.25;1.88;;;6.70;99.90;;;;;;4970795;28;20041;-75
2023/03/29 04:00:19;;;;;;;2.33;0.93;;;6.70;99.90;;;;;;4977104;28;20036;-76
2023/03/29 04:02:55;;;;;;;3.60;1.52;;;6.70;99.90;;;;;;4977613;28;20045;-75
2023/03/29 04:05:21;;;;;;;3.40;2.20;;;6.70;99.90;;;;;;4973172;28;20053;-76
2023/03/29 04:07:48;;;;;;;3.33;2.15;;;6.80;99.90;;;;;;4970329;28;20456;-75
2023/03/29 04:10:38;;;;;;;3.95;1.40;;;6.70;99.90;;;;;;4966028;28;20452;-75
2023/03/29 04:13:12;;;;;;;2.72;1.40;;;6.70;99.90;;;;;;4986468;28;20134;-75
2023/03/29 04:15:59;;;;;;;3.13;1.33;;;6.70;99.90;;;;;;4973227;28;20049;-76
2023/03/29 04:18:27;;;;;;;1.75;0.80;;;6.80;99.90;;;;;;4963786;28;20053;-75
2023/03/29 04:20:56;;;;;;;3.40;1.30;;;6.80;99.90;;;;;;4972942;28;20046;-74
2023/03/29 04:23:24;;;;;;;3.40;1.20;;;6.80;99.90;;;;;;4979093;28;20041;-76
2023/03/29 04:25:55;;;;;;;2.55;1.65;;;6.80;99.90;;;;;;4941959;28;20052;-76
2023/03/29 04:29:00;;;;;;;5.15;1.50;;;6.80;99.90;;;;;;4961641;28;21644;-75
2023/03/29 04:31:47;;;;;;;3.05;1.63;;;6.80;99.90;;;;;;4964105;28;20049;-76
2023/03/29 04:34:32;;;;;;;3.72;1.88;;;6.80;99.90;;;;;;4953676;28;20601;-74
2023/03/29 04:36:58;;;;;;;2.33;0.98;;;6.90;99.90;;;;;;4969818;28;20392;-76
2023/03/29 04:39:32;;;;;;;3.60;1.33;;;6.80;99.90;;;;;;4994945;28;20053;-76
2023/03/29 04:42:01;;;;;;;2.00;1.10;;;6.90;99.90;;;;;;4974390;28;20065;-75
2023/03/29 04:44:32;;;;;;;3.72;1.10;;;6.90;99.90;;;;;;4973107;28;20042;-74
2023/03/29 04:47:00;;;;;;;1.95;0.80;;;6.90;99.90;;;;;;4969610;28;20046;-75
2023/03/29 04:49:45;;;;;;;3.70;1.50;;;6.90;99.90;;;;;;4971043;28;20057;-77
2023/03/29 04:52:19;;;;;;;3.15;1.48;;;6.90;99.90;;;;;;4964524;28;20038;-76
2023/03/29 04:54:45;;;;;;;1.52;0.85;;;6.90;99.90;;;;;;4973117;28;20570;-76
2023/03/29 04:57:27;;;;;;;4.78;1.50;;;6.90;99.90;;;;;;4976124;28;20044;-76
2023/03/29 04:59:58;;;;;;;2.40;1.23;;;6.90;99.90;;;;;;4978272;28;20034;-74
2023/03/29 05:02:54;;;;;;;3.30;1.45;;;6.90;99.90;;;;;;4974350;28;20045;-76
2023/03/29 05:05:21;;;;;;;4.18;1.40;;;6.90;99.90;;;;;;4984661;28;20041;-75
2023/03/29 05:07:50;;;;;;;3.20;1.52;;;6.80;99.90;;;;;;4983694;28;20484;-75
2023/03/29 05:10:21;;;;;;;2.28;1.00;;;6.80;99.90;;;;;;4966082;28;20038;-76
2023/03/29 05:12:52;;;;;;;2.60;1.05;;;6.80;99.90;;;;;;4949646;28;20065;-75
2023/03/29 05:15:20;;;;;;;2.80;1.55;;;6.80;99.90;;;;;;4952833;28;20045;-75
2023/03/29 05:17:48;;;;;;;2.65;1.48;;;6.90;99.90;;;;;;4991870;28;20045;-75
2023/03/29 05:20:16;;;;;;;2.50;1.27;;;6.90;99.90;;;;;;4973576;28;20045;-75
2023/03/29 05:22:44;;;;;;;3.45;1.55;;;6.90;99.90;;;;;;4972731;28;20037;-76
2023/03/29 05:25:19;;;;;;;3.75;1.45;;;6.90;99.90;;;;;;4971248;28;20038;-74
2023/03/29 05:27:45;;;;;;;4.50;1.30;;;6.90;99.90;;;;;;4969986;28;21512;-74
2023/03/29 05:30:14;;;;;;;2.20;1.15;;;6.90;99.90;;;;;;4981224;28;20033;-74
2023/03/29 05:33:01;;;;;;;2.45;1.17;;;6.90;99.90;;;;;;4970339;28;20046;-74
2023/03/29 05:35:29;;;;;;;2.25;0.90;;;6.90;99.90;;;;;;4972526;28;20440;-74
2023/03/29 05:37:57;;;;;;;6.97;2.08;;;6.90;99.90;;;;;;4963168;28;20034;-74
2023/03/29 05:40:25;;;;;;;1.85;0.90;;;6.90;99.90;;;;;;4958739;28;20037;-74
2023/03/29 05:43:09;;;;;;;2.50;1.15;;;7.00;99.90;;;;;;4990939;28;20041;-75
2023/03/29 05:45:36;;;;;;;2.97;1.40;;;7.00;99.90;;;;;;4971049;28;20394;-75
2023/03/29 05:48:03;;;;;;;2.72;1.10;;;7.00;99.90;;;;;;4967690;28;20038;-75
2023/03/29 05:50:30;;;;;;;3.20;1.75;;;7.00;99.90;;;;;;4979374;28;20049;-76
2023/03/29 05:52:57;;;;;;;2.75;1.08;;;7.00;99.90;;;;;;4984097;28;20058;-76
2023/03/29 05:55:23;;;;;;;3.00;1.52;;;7.10;99.90;;;;;;4968494;28;20053;-74
2023/03/29 05:57:50;;;;;;;4.18;1.58;;;7.10;99.90;;;;;;4975993;28;20040;-75
2023/03/29 06:00:22;;;;;;;2.00;0.93;;;7.10;99.90;;;;;;4975072;28;20054;-74
2023/03/29 06:02:54;;;;;;;4.13;1.45;;;7.10;99.90;;;;;;4957171;28;20500;-76
2023/03/29 06:05:22;;;;;;;2.78;1.55;;;7.10;99.90;;;;;;4970267;28;20404;-76
2023/03/29 06:07:56;;;;;;;3.38;1.27;;;7.10;99.90;;;;;;4969439;28;20030;-75
2023/03/29 06:10:42;;;;;;;2.55;1.40;;;7.20;99.90;;;;;;4962698;28;20042;-75
2023/03/29 06:13:29;;;;;;;2.55;1.42;;;7.20;99.90;;;;;;4969320;28;20045;-76
2023/03/29 06:15:56;;;;;;;2.10;1.10;;;7.20;99.90;;;;;;4969753;28;20493;-75
2023/03/29 06:18:25;;;;;;;2.42;1.00;;;7.30;99.90;;;;;;4959749;28;20038;-75
2023/03/29 06:20:52;;;;;;;3.88;1.80;;;7.30;99.90;;;;;;4970585;28;20034;-75
2023/03/29 06:23:20;;;;;;;7.47;1.35;;;7.30;99.90;;;;;;4960436;28;20046;-74
2023/03/29 06:25:50;;;;;;;2.47;1.00;;;7.30;99.90;;;;;;4967914;28;20056;-74
2023/03/29 06:28:18;;;;;;;3.30;1.95;;;7.40;99.90;;;;;;4986599;28;20037;-75
2023/03/29 06:30:45;;;;;;;2.60;1.40;;;7.50;99.90;;;;;;4978519;28;20449;-75
2023/03/29 06:33:13;;;;;;;3.15;1.40;;;7.60;99.90;;;;;;4968890;28;20038;-76
2023/03/29 06:35:47;;;;;;;3.75;1.42;;;7.60;99.90;;;;;;4968818;28;20041;-76
2023/03/29 06:38:16;;;;;;;1.90;1.10;;;7.70;99.90;;;;;;4967846;28;20548;-77
2023/03/29 06:41:18;;;;;;;4.20;1.10;;;7.80;99.90;;;;;;4960134;28;20049;-76
2023/03/29 06:44:14;;;;;;;3.30;1.52;;;7.80;99.90;;;;;;4975648;28;20058;-76
2023/03/29 06:47:04;;;;;;;2.95;1.33;;;8.00;99.90;;;;;;4959624;28;20049;-75
2023/03/29 06:49:30;;;;;;;3.13;1.10;;;8.10;99.90;;;;;;4983786;28;20050;-77
2023/03/29 06:52:15;;;;;;;5.55;1.60;;;8.20;99.90;;;;;;4965428;28;20045;-76
2023/03/29 06:54:42;;;;;;;3.90;2.47;;;8.20;99.90;;;;;;4965903;28;20041;-75
2023/03/29 06:57:09;;;;;;;3.83;1.73;;;8.20;99.90;;;;;;4984944;28;20053;-76
2023/03/29 06:59:35;;;;;;;4.97;2.05;;;8.30;99.90;;;;;;4969256;28;20049;-77
2023/03/29 07:02:16;;;;;;;4.07;1.70;;;8.30;99.90;;;;;;4971285;28;20444;-77
2023/03/29 07:04:50;;;;;;;3.38;1.83;;;8.40;99.90;;;;;;4991912;28;20413;-77
2023/03/29 07:07:42;;;;;;;6.05;2.88;;;8.40;99.90;;;;;;4966304;28;20053;-77
2023/03/29 07:10:23;;;;;;;4.67;2.40;;;8.50;99.90;;;;;;4964900;28;20092;-76
2023/03/29 07:13:13;;;;;;;5.60;2.22;;;8.60;99.90;;;;;;4969918;28;21413;-77
2023/03/29 07:15:41;;;;;;;9.88;3.10;;;8.60;99.90;;;;;;4949841;28;20050;-78
2023/03/29 07:18:18;;;;;;;6.60;2.13;;;8.80;99.90;;;;;;4982326;28;20050;-75
2023/03/29 07:20:46;;;;;;;7.13;3.05;;;8.80;99.90;;;;;;4984684;28;20040;-78
2023/03/29 07:23:14;;;;;;;5.63;2.80;;;8.90;99.90;;;;;;4992094;28;20041;-77
2023/03/29 07:25:41;;;;;;;6.00;2.55;;;8.90;99.90;;;;;;4986831;28;20037;-77
2023/03/29 07:28:08;;;;;;;3.97;2.83;;;8.90;99.90;;;;;;4966930;28;20504;-76
2023/03/29 07:30:35;;;;;;;5.20;2.30;;;9.00;99.90;;;;;;4945079;28;20042;-78
2023/03/29 07:33:14;;;;;;;3.88;2.00;;;9.00;99.90;;;;;;4982694;28;20306;-77
2023/03/29 07:36:04;;;;;;;3.90;2.15;;;9.10;99.90;;;;;;4982820;28;20042;-76
2023/03/29 07:38:31;;;;;;;5.75;2.28;;;9.10;99.90;;;;;;4953465;28;20050;-78
2023/03/29 07:41:10;;;;;;;3.67;1.67;;;9.20;99.90;;;;;;4973212;28;20257;-77
2023/03/29 07:44:07;;;;;;;4.15;2.13;;;9.30;99.90;;;;;;4973448;28;20449;-75
2023/03/29 07:46:38;;;;;;;4.00;1.77;;;9.40;99.90;;;;;;4966539;28;20663;-77
2023/03/29 07:49:05;;;;;;;4.10;2.40;;;9.50;99.90;;;;;;4962999;28;20046;-77
2023/03/29 07:51:32;;;;;;;4.22;2.38;;;9.60;99.90;;;;;;4961427;28;20071;-75
2023/03/29 07:54:05;;;;;;;4.43;2.50;;;9.60;99.90;;;;;;4980759;28;21155;-75
2023/03/29 07:56:31;;;;;;;6.35;2.92;;;9.70;99.90;;;;;;4966517;28;20038;-75
2023/03/29 07:59:15;;;;;;;4.20;2.17;;;9.80;99.90;;;;;;4968700;28;20397;-76
2023/03/29 08:01:45;;;;;;;8.10;2.92;;;9.90;99.90;;;;;;4970345;28;20041;-82
2023/03/29 08:04:22;;;;;;;6.65;3.08;;;9.90;99.90;;;;;;4975043;28;20046;-77
2023/03/29 08:07:07;;;;;;;6.65;3.13;;;10.00;99.90;;;;;;4969110;28;20038;-75
2023/03/29 08:10:09;;;;;;;6.05;2.63;;;10.10;99.90;;;;;;4953571;28;20586;-76
2023/03/29 08:13:07;;;;;;;4.40;2.20;;;10.10;99.90;;;;;;4969922;28;20090;-75
2023/03/29 08:15:54;;;;;;;4.63;2.50;;;10.20;99.90;;;;;;4952037;28;20489;-76
2023/03/29 08:18:27;;;;;;;4.85;2.35;;;10.30;99.90;;;;;;4974938;28;23387;-76
2023/03/29 08:20:54;;;;;;;4.65;2.28;;;10.30;99.90;;;;;;4974660;28;20042;-76
2023/03/29 08:23:20;;;;;;;4.63;2.17;;;10.30;99.90;;;;;;4978298;28;20046;-76
2023/03/29 08:26:02;;;;;;;4.78;2.42;;;10.40;99.90;;;;;;4970246;28;20057;-77
2023/03/29 08:28:28;;;;;;;5.30;1.90;;;10.40;99.90;;;;;;4953194;28;20049;-75
2023/03/29 08:30:55;;;;;;;4.75;2.35;;;10.40;99.90;;;;;;4970112;28;20499;-76
2023/03/29 08:33:22;;;;;;;7.65;3.60;;;10.50;99.90;;;;;;4972086;28;20398;-76
2023/03/29 08:35:57;;;;;;;8.95;2.97;;;10.50;99.90;;;;;;4973477;28;20053;-75
2023/03/29 08:38:27;;;;;;;8.23;3.78;;;10.50;99.90;;;;;;4962365;28;20042;-75
2023/03/29 08:40:55;;;;;;;5.28;3.15;;;10.50;99.90;;;;;;4989319;28;20064;-79
2023/03/29 08:43:36;;;;;;;8.10;4.13;;;10.50;99.90;;;;;;4973037;28;20046;-79
2023/03/29 08:46:19;;;;;;;5.13;2.80;;;10.50;99.90;;;;;;4969845;28;20646;-77
2023/03/29 08:48:58;;;;;;;9.27;3.40;;;10.60;99.90;;;;;;4969611;28;20046;-76
2023/03/29 08:51:36;;;;;;;6.25;3.75;;;10.70;99.90;;;;;;4979382;28;20061;-75
2023/03/29 08:54:38;;;;;;;8.52;3.90;;;10.90;99.90;;;;;;4968983;28;20038;-75
2023/03/29 08:57:34;;;;;;;4.97;3.40;;;11.10;99.90;;;;;;4980440;28;20041;-75
2023/03/29 09:00:09;;;;;;;5.28;2.78;;;11.40;99.90;;;;;;4960145;28;20046;-77
2023/03/29 09:02:39;;;;;;;7.70;3.17;;;11.50;99.90;;;;;;4971609;28;20038;-75
2023/03/29 09:05:19;;;;;;;7.53;4.07;;;11.70;99.90;;;;;;4967363;28;20061;-76
2023/03/29 09:08:16;;;;;;;8.27;3.88;;;12.00;99.90;;;;;;4974059;28;20849;-79
2023/03/29 09:11:02;;;;;;;8.18;4.32;;;12.20;99.90;;;;;;4967771;28;20508;-81
2023/03/29 09:13:52;;;;;;;6.63;4.30;;;12.40;99.90;;;;;;4968847;28;20056;-78
2023/03/29 09:16:44;;;;;;;8.65;4.57;;;12.40;99.90;;;;;;4972598;28;20999;-77
2023/03/29 09:19:33;;;;;;;7.32;4.15;;;12.30;99.90;;;;;;4995232;28;20274;-77
2023/03/29 09:22:21;;;;;;;9.45;4.82;;;12.20;99.90;;;;;;4968902;28;20033;-77
2023/03/29 09:25:12;;;;;;;8.77;4.85;;;12.10;99.90;;;;;;4952082;28;20037;-78
2023/03/29 09:28:07;;;;;;;8.77;4.20;;;12.10;99.90;;;;;;4955028;28;20041;-76
2023/03/29 09:31:00;;;;;;;5.68;4.05;;;12.10;99.90;;;;;;4949556;28;20384;-77
2023/03/29 09:33:41;;;;;;;7.07;4.00;;;12.20;99.90;;;;;;4968963;28;20034;-77
2023/03/29 09:36:51;;;;;;;5.35;3.67;;;12.30;99.90;;;;;;4976291;28;20045;-75
2023/03/29 09:39:22;;;;;;;7.35;4.32;;;12.50;99.90;;;;;;4982269;28;20409;-77
2023/03/29 09:41:55;;;;;;;7.13;4.65;;;12.70;99.90;;;;;;4971612;28;20053;-78
2023/03/29 09:44:28;;;;;;;6.25;4.20;;;12.80;99.90;;;;;;4954254;28;22893;-75
2023/03/29 09:47:01;;;;;;;10.00;5.53;;;12.90;99.90;;;;;;4953979;28;20037;-79
2023/03/29 09:49:37;;;;;;;8.07;5.30;;;13.00;99.90;;;;;;4956162;28;20057;-79
2023/03/29 09:52:11;;;;;;;9.30;5.72;;;13.10;99.90;;;;;;4983189;28;20038;-78
2023/03/29 09:54:40;;;;;;;8.00;4.32;;;13.20;99.90;;;;;;4970461;28;20482;-74
2023/03/29 09:57:25;;;;;;;10.10;5.00;;;13.30;99.90;;;;;;4979391;28;20033;-78
2023/03/29 09:59:53;;;;;;;6.82;4.30;;;13.40;99.90;;;;;;4974943;28;20592;-75
2023/03/29 10:02:20;;;;;;;9.25;6.32;;;13.50;99.90;;;;;;4981240;28;20048;-76
2023/03/29 10:04:57;;;;;;;7.28;4.97;;;13.60;99.90;;;;;;4970260;28;20056;-77
2023/03/29 10:07:36;;;;;;;10.35;7.00;;;13.80;99.90;;;;;;4969702;28;20469;-77
2023/03/29 10:10:08;;;;;;;9.65;6.70;;;13.80;99.90;;;;;;4950762;28;20050;-76
2023/03/29 10:12:34;;;;;;;8.32;5.93;;;13.80;99.90;;;;;;4967762;28;20037;-76
2023/03/29 10:15:02;;;;;;;11.90;7.68;;;13.70;99.90;;;;;;4978210;28;20037;-76
2023/03/29 10:17:36;;;;;;;8.27;5.78;;;13.60;99.90;;;;;;4977423;28;20049;-76
2023/03/29 10:20:05;;;;;;;10.63;6.90;;;13.50;99.90;;;;;;4969649;28;20049;-75
2023/03/29 10:22:39;;;;;;;10.50;6.43;;;13.40;99.90;;;;;;4952008;28;23909;-77
2023/03/29 10:25:12;;;;;;;7.07;5.32;;;13.40;99.90;;;;;;4968412;28;20030;-77
2023/03/29 10:27:42;;;;;;;8.98;5.90;;;13.50;99.90;;;;;;4985560;28;20669;-76
2023/03/29 10:30:20;;;;;;;7.05;5.10;;;13.60;99.90;;;;;;4970882;28;20037;-74
2023/03/29 10:32:54;;;;;;;7.40;4.97;;;13.80;99.90;;;;;;4972656;28;20037;-76
2023/03/29 10:35:30;;;;;;;8.93;6.43;;;14.00;99.90;;;;;;4966780;28;20501;-77
2023/03/29 10:37:58;;;;;;;7.38;5.82;;;14.10;99.90;;;;;;4966823;28;20352;-77
2023/03/29 10:40:24;;;;;;;9.00;6.43;;;14.30;99.90;;;;;;4975157;28;20038;-76
2023/03/29 10:42:52;;;;;;;7.25;5.60;;;14.40;99.90;;;;;;4954214;28;20044;-76
2023/03/29 10:45:32;;;;;;;8.55;5.70;;;14.40;99.90;;;;;;4972130;28;20037;-77
2023/03/29 10:47:59;;;;;;;8.75;5.45;;;14.50;99.90;;;;;;4971832;28;20034;-76
2023/03/29 10:50:36;;;;;;;8.25;6.03;;;14.50;99.90;;;;;;4968005;28;20651;-76
2023/03/29 10:53:14;;;;;;;9.82;5.32;;;14.50;99.90;;;;;;4976141;28;20038;-74
2023/03/29 10:56:06;;;;;;;10.50;6.35;;;14.40;99.90;;;;;;4983818;28;20065;-74
2023/03/29 10:58:38;;;;;;;8.63;5.95;;;14.40;99.90;;;;;;4996320;28;20048;-76
2023/03/29 11:01:07;;;;;;;7.78;5.25;;;14.30;99.90;;;;;;4952937;28;20401;-75
2023/03/29 11:03:40;;;;;;;6.43;5.18;;;14.20;99.90;;;;;;4986301;28;20417;-78
2023/03/29 11:06:28;;;;;;;9.48;6.18;;;14.20;99.90;;;;;;4970228;28;20073;-77
2023/03/29 11:09:03;;;;;;;6.85;5.45;;;14.10;99.90;;;;;;4951713;28;20060;-75
2023/03/29 11:12:02;;;;;;;6.43;4.28;;;14.00;99.90;;;;;;4962488;28;20045;-78
2023/03/29 11:15:08;;;;;;;7.20;5.47;;;14.10;99.90;;;;;;4976962;28;20068;-74
2023/03/29 11:17:52;;;;;;;11.57;8.07;;;14.20;99.90;;;;;;4976405;28;20061;-75
2023/03/29 11:20:23;;;;;;;10.75;6.88;;;14.50;99.90;;;;;;4965423;28;20045;-76
2023/03/29 11:23:28;;;;;;;8.00;5.93;;;14.70;99.90;;;;;;4966210;28;20045;-77
2023/03/29 11:26:17;;;;;;;7.03;5.13;;;14.80;99.90;;;;;;4951245;28;20049;-75
2023/03/29 11:29:22;;;;;;;8.25;5.38;;;14.90;99.90;;;;;;4971288;28;20043;-75
2023/03/29 11:32:27;;;;;;;10.50;6.30;;;14.80;99.90;;;;;;4945210;28;20045;-76
2023/03/29 11:35:12;;;;;;;7.53;5.20;;;14.80;99.90;;;;;;4971094;28;20057;-77
2023/03/29 11:37:55;;;;;;;7.95;4.38;;;14.80;99.90;;;;;;4976488;28;20062;-76
2023/03/29 11:40:41;;;;;;;7.50;4.60;;;14.90;99.90;;;;;;4966733;28;20038;-76
2023/03/29 11:43:36;;;;;;;7.53;4.38;;;14.90;99.90;;;;;;4970832;28;20038;-76
2023/03/29 11:46:15;;;;;;;8.93;4.18;;;14.90;99.90;;;;;;4969212;28;20045;-76
2023/03/29 11:48:54;;;;;;;5.05;4.10;;;14.70;99.90;;;;;;4972000;28;20053;-76
2023/03/29 11:52:05;;;;;;;6.72;4.10;;;14.60;99.90;;;;;;4970123;28;20060;-76
2023/03/29 11:54:40;;;;;;;8.85;4.28;;;14.40;99.90;;;;;;4998812;28;20045;-77
2023/03/29 11:57:29;;;;;;;8.18;4.00;;;14.10;99.90;;;;;;4995592;28;20048;-76
2023/03/29 12:00:03;;;;;;;10.80;6.30;;;14.00;99.90;;;;;;4976117;28;20369;-77
2023/03/29 12:02:43;;;;;;;9.15;4.20;;;13.80;99.90;;;;;;4985702;28;20048;-78
2023/03/29 12:05:31;;;;;;;8.05;5.25;;;13.70;99.90;;;;;;4973795;28;20048;-78
2023/03/29 12:09:00;;;;;;;5.88;4.10;;;13.60;99.90;;;;;;4972766;28;20053;-76
2023/03/29 12:11:32;;;;;;;8.05;4.50;;;13.60;99.90;;;;;;4928913;28;20045;-76
2023/03/29 12:14:10;;;;;;;5.05;3.55;;;13.60;99.90;;;;;;4984383;28;20046;-77
2023/03/29 12:16:39;;;;;;;6.55;3.55;;;13.80;99.90;;;;;;4978247;28;20042;-78
2023/03/29 12:19:33;;;;;;;10.52;6.22;;;13.90;99.90;;;;;;4971970;28;20053;-76
2023/03/29 12:22:00;;;;;;;9.70;4.95;;;14.00;99.90;;;;;;4966589;28;20034;-75
2023/03/29 12:24:31;;;;;;;5.35;4.10;;;13.90;99.90;;;;;;4971448;28;20057;-75
2023/03/29 12:26:57;;;;;;;7.28;4.75;;;13.90;99.90;;;;;;4973501;28;20044;-78
2023/03/29 12:29:36;;;;;;;5.53;3.95;;;13.90;99.90;;;;;;4970363;28;20042;-75
2023/03/29 12:32:18;;;;;;;6.70;3.92;;;13.80;99.90;;;;;;4974728;28;20390;-76
2023/03/29 12:35:04;;;;;;;7.60;4.78;;;13.80;99.90;;;;;;4982618;28;20045;-75
2023/03/29 12:38:24;;;;;;;11.27;7.60;;;13.80;99.90;;;;;;4977044;28;20054;-77
2023/03/29 12:41:21;;;;;;;7.28;4.90;;;13.80;99.90;;;;;;4954202;28;20038;-77
2023/03/29 12:44:14;;;;;;;6.85;4.60;;;13.90;99.90;;;;;;4974119;28;20046;-76
2023/03/29 12:46:52;;;;;;;6.50;3.72;;;13.90;99.90;;;;;;4973716;28;20478;-76
2023/03/29 12:49:31;;;;;;;5.55;3.45;;;14.00;99.90;;;;;;4972724;28;20038;-76
2023/03/29 12:52:00;;;;;;;9.77;4.32;;;14.00;99.90;;;;;;4973093;28;20045;-74
2023/03/29 12:54:31;;;;;;;4.85;3.40;;;14.00;99.90;;;;;;4983195;28;20034;-75
2023/03/29 12:57:19;;;;;;;6.10;3.78;;;14.00;99.90;;;;;;4955342;28;20050;-77
2023/03/29 12:59:51;;;;;;;4.18;2.78;;;13.80;99.90;;;;;;4970324;28;20046;-76
2023/03/29 13:02:17;;;;;;;5.75;4.15;;;13.80;99.90;;;;;;4953652;28;20049;-74
2023/03/29 13:04:55;;;;;;;6.07;3.58;;;13.70;99.90;;;;;;4970115;28;20512;-76
2023/03/29 13:07:21;;;;;;;6.93;3.95;;;13.60;99.90;;;;;;4972401;28;20080;-76
2023/03/29 13:09:48;;;;;;;5.68;4.00;;;13.50;99.90;;;;;;4974873;28;20405;-77
2023/03/29 13:12:14;;;;;;;6.45;3.88;;;13.50;99.90;;;;;;4978236;28;20050;-76
2023/03/29 13:14:51;;;;;;;5.00;3.05;;;13.40;99.90;;;;;;4979967;28;20034;-74
2023/03/29 13:17:33;;;;;;;6.13;3.60;;;13.50;99.90;;;;;;4972629;28;20042;-74
2023/03/29 13:20:24;;;;;;;3.72;3.38;;;13.50;99.90;;;;;;4955361;28;20053;-77
2023/03/29 13:23:10;;;;;;;4.63;3.40;;;13.50;99.90;;;;;;4951294;28;20049;-77
2023/03/29 13:26:06;;;;;;;4.68;2.90;;;13.60;99.90;;;;;;4973087;28;20683;-77
2023/03/29 13:28:44;;;;;;;4.45;3.20;;;13.70;99.90;;;;;;4985753;28;21194;-78
2023/03/29 13:31:20;;;;;;;4.68;2.85;;;13.70;99.90;;;;;;4971788;28;20493;-76
2023/03/29 13:34:03;;;;;;;4.03;3.22;;;13.90;99.90;;;;;;4980701;28;20578;-76
2023/03/29 13:36:54;;;;;;;5.53;3.72;;;14.00;99.90;;;;;;4975661;28;20033;-76
2023/03/29 13:39:28;;;;;;;4.05;2.83;;;14.10;99.90;;;;;;4972350;28;20046;-76